createdAt,value
2023-04-27T00:00:30.118Z,51.43
2023-04-27T00:01:30.191Z,48.61
2023-04-27T00:02:30.698Z,47.23
2023-04-27T00:03:30.385Z,48.17
2023-04-27T00:04:30.433Z,49.13
2023-04-27T00:05:30.469Z,49.16
2023-04-27T00:06:30.376Z,51.59
2023-04-27T00:07:30.472Z,52.70
2023-04-27T00:08:30.510Z,52.21
2023-04-27T00:09:30.561Z,55.92
2023-04-27T00:10:30.600Z,57.20
2023-04-27T00:11:30.650Z,59.06
2023-04-27T00:12:30.708Z,60.01
2023-04-27T00:13:30.765Z,59.25
2023-04-27T00:14:30.802Z,58.50
2023-04-27T00:15:30.865Z,60.08
2023-04-27T00:16:31.001Z,57.80
2023-04-27T00:17:31.071Z,59.77
2023-04-27T00:18:31.027Z,61.43
2023-04-27T00:19:31.106Z,61.42
2023-04-27T00:20:31.150Z,59.98
2023-04-27T00:21:31.239Z,61.76
2023-04-27T00:22:31.267Z,61.87
2023-04-27T00:23:31.369Z,61.00
2023-04-27T00:24:31.394Z,58.56
2023-04-27T00:25:31.470Z,60.25
2023-04-27T00:26:31.547Z,60.11
2023-04-27T00:27:31.566Z,56.72
2023-04-27T00:28:31.611Z,56.83
2023-04-27T00:29:31.661Z,54.21
2023-04-27T00:30:31.699Z,50.89
2023-04-27T00:31:31.815Z,47.37
2023-04-27T00:32:31.877Z,47.65
2023-04-27T00:33:31.849Z,46.97
2023-04-27T00:34:31.916Z,46.61
2023-04-27T00:35:31.953Z,47.21
2023-04-27T00:36:32.000Z,47.54
2023-04-27T00:37:32.048Z,46.96
2023-04-27T00:38:32.090Z,47.65
2023-04-27T00:39:32.191Z,47.02
2023-04-27T00:40:32.179Z,47.92
2023-04-27T00:41:32.237Z,46.32
2023-04-27T00:42:32.295Z,44.94
2023-04-27T00:43:32.305Z,43.92
2023-04-27T00:44:32.368Z,43.24
2023-04-27T00:45:32.434Z,43.47
2023-04-27T00:46:32.487Z,42.40
2023-04-27T00:47:32.562Z,43.37
2023-04-27T00:48:32.543Z,41.28
2023-04-27T00:49:32.606Z,40.67
2023-04-27T00:50:32.632Z,41.74
2023-04-27T00:51:32.671Z,42.62
2023-04-27T00:52:32.735Z,41.72
2023-04-27T00:53:32.786Z,42.24
2023-04-27T00:54:32.818Z,42.43
2023-04-27T00:55:32.876Z,42.01
2023-04-27T00:56:32.905Z,39.25
2023-04-27T00:57:32.989Z,40.43
2023-04-27T00:58:33.057Z,41.47
2023-04-27T00:59:33.102Z,42.54
2023-04-27T01:00:33.124Z,42.93
2023-04-27T01:01:33.211Z,44.61
2023-04-27T01:02:33.434Z,45.66
2023-04-27T01:03:33.393Z,46.78
2023-04-27T01:04:33.355Z,45.37
2023-04-27T01:05:33.371Z,44.09
2023-04-27T01:06:33.421Z,45.92
2023-04-27T01:07:33.455Z,46.89
2023-04-27T01:08:33.506Z,46.83
2023-04-27T01:09:33.541Z,45.42
2023-04-27T01:10:33.626Z,42.46
2023-04-27T01:11:33.647Z,41.37
2023-04-27T01:12:33.688Z,42.34
2023-04-27T01:13:33.732Z,42.05
2023-04-27T01:14:33.809Z,41.73
2023-04-27T01:15:33.866Z,41.66
2023-04-27T01:16:33.911Z,43.00
2023-04-27T01:17:34.002Z,41.09
2023-04-27T01:18:33.978Z,37.17
2023-04-27T01:19:34.032Z,38.42
2023-04-27T01:20:34.308Z,40.91
2023-04-27T01:21:34.116Z,41.83
2023-04-27T01:22:34.187Z,41.81
2023-04-27T01:23:34.256Z,41.49
2023-04-27T01:24:34.282Z,42.64
2023-04-27T01:25:34.298Z,43.49
2023-04-27T01:26:34.352Z,44.47
2023-04-27T01:27:34.410Z,44.72
2023-04-27T01:28:34.450Z,43.84
2023-04-27T01:29:34.504Z,44.62
2023-04-27T01:30:34.554Z,46.05
2023-04-27T01:31:34.668Z,44.90
2023-04-27T01:32:34.617Z,44.90
2023-04-27T01:33:34.658Z,46.62
2023-04-27T01:34:34.710Z,46.03
2023-04-27T01:35:34.783Z,46.36
2023-04-27T01:36:34.813Z,46.43
2023-04-27T01:37:34.886Z,46.75
2023-04-27T01:38:34.906Z,46.23
2023-04-27T01:39:34.965Z,46.83
2023-04-27T01:40:34.996Z,44.26
2023-04-27T01:41:35.034Z,42.66
2023-04-27T01:42:35.092Z,41.74
2023-04-27T01:43:35.143Z,41.49
2023-04-27T01:44:35.182Z,41.77
2023-04-27T01:45:35.239Z,39.92
2023-04-27T01:46:35.378Z,40.63
2023-04-27T01:47:35.307Z,41.05
2023-04-27T01:48:35.341Z,39.76
2023-04-27T01:49:35.426Z,39.34
2023-04-27T01:50:35.436Z,38.04
2023-04-27T01:51:35.499Z,38.61
2023-04-27T01:52:35.554Z,37.23
2023-04-27T01:53:35.594Z,35.80
2023-04-27T01:54:35.692Z,33.05
2023-04-27T01:55:35.711Z,32.00
2023-04-27T01:56:35.734Z,32.95
2023-04-27T01:57:35.841Z,34.07
2023-04-27T01:58:35.867Z,35.41
2023-04-27T01:59:35.906Z,35.83
2023-04-27T02:00:35.924Z,36.59
2023-04-27T02:01:36.013Z,36.07
2023-04-27T02:02:36.163Z,35.93
2023-04-27T02:03:36.178Z,34.68
2023-04-27T02:04:36.367Z,36.28
2023-04-27T02:05:36.216Z,37.25
2023-04-27T02:06:36.253Z,39.20
2023-04-27T02:07:36.294Z,39.92
2023-04-27T02:08:36.484Z,42.05
2023-04-27T02:09:36.383Z,43.90
2023-04-27T02:10:36.429Z,45.55
2023-04-27T02:11:36.453Z,50.33
2023-04-27T02:12:36.536Z,49.39
2023-04-27T02:13:36.612Z,50.80
2023-04-27T02:14:36.642Z,52.92
2023-04-27T02:15:36.720Z,53.03
2023-04-27T02:16:36.852Z,57.41
2023-04-27T02:17:36.884Z,63.18
2023-04-27T02:18:36.923Z,74.38
2023-04-27T02:19:37.007Z,80.28
2023-04-27T02:20:37.037Z,80.83
2023-04-27T02:21:37.134Z,75.18
2023-04-27T02:22:37.207Z,88.98
2023-04-27T02:23:37.253Z,100.79
2023-04-27T02:24:37.326Z,104.19
2023-04-27T02:25:37.379Z,99.99
2023-04-27T02:26:37.430Z,98.46
2023-04-27T02:27:37.512Z,103.15
2023-04-27T02:28:37.542Z,97.33
2023-04-27T02:29:37.615Z,87.94
2023-04-27T02:30:37.643Z,83.89
2023-04-27T02:31:37.789Z,89.38
2023-04-27T02:32:37.808Z,92.68
2023-04-27T02:33:37.831Z,90.56
2023-04-27T02:34:37.863Z,83.16
2023-04-27T02:35:37.933Z,83.55
2023-04-27T02:36:37.953Z,85.61
2023-04-27T02:37:38.031Z,83.91
2023-04-27T02:38:38.069Z,81.42
2023-04-27T02:39:38.089Z,80.69
2023-04-27T02:40:38.145Z,83.82
2023-04-27T02:41:38.182Z,82.71
2023-04-27T02:42:38.224Z,79.95
2023-04-27T02:43:38.293Z,80.78
2023-04-27T02:44:38.317Z,76.70
2023-04-27T02:45:38.442Z,78.77
2023-04-27T02:46:38.456Z,79.95
2023-04-27T02:47:38.484Z,78.79
2023-04-27T02:48:38.433Z,77.45
2023-04-27T02:49:38.480Z,79.05
2023-04-27T02:50:38.554Z,77.49
2023-04-27T02:51:38.604Z,74.41
2023-04-27T02:52:38.635Z,75.92
2023-04-27T02:53:38.661Z,76.03
2023-04-27T02:54:38.688Z,76.21
2023-04-27T02:55:38.701Z,76.05
2023-04-27T02:56:38.738Z,74.31
2023-04-27T02:57:38.784Z,74.52
2023-04-27T02:58:38.809Z,72.85
2023-04-27T02:59:38.825Z,77.15
2023-04-27T03:00:38.851Z,75.15
2023-04-27T03:01:39.146Z,76.12
2023-04-27T03:02:39.153Z,73.45
2023-04-27T03:03:39.217Z,73.19
2023-04-27T03:04:39.073Z,70.26
2023-04-27T03:05:39.030Z,69.02
2023-04-27T03:06:39.078Z,71.88
2023-04-27T03:07:39.072Z,73.18
2023-04-27T03:08:39.125Z,72.18
2023-04-27T03:09:39.158Z,76.33
2023-04-27T03:10:39.198Z,78.65
2023-04-27T03:11:39.211Z,79.67
2023-04-27T03:12:39.248Z,80.83
2023-04-27T03:13:39.256Z,79.63
2023-04-27T03:14:39.290Z,78.48
2023-04-27T03:15:39.328Z,77.37
2023-04-27T03:16:39.390Z,77.90
2023-04-27T03:17:39.383Z,76.04
2023-04-27T03:18:39.406Z,74.62
2023-04-27T03:19:39.407Z,75.12
2023-04-27T03:20:39.463Z,77.97
2023-04-27T03:21:39.449Z,75.97
2023-04-27T03:22:39.498Z,73.82
2023-04-27T03:23:39.476Z,72.92
2023-04-27T03:24:39.486Z,71.98
2023-04-27T03:25:39.551Z,71.78
2023-04-27T03:26:39.522Z,71.65
2023-04-27T03:27:39.569Z,70.90
2023-04-27T03:28:39.598Z,68.69
2023-04-27T03:29:39.606Z,69.99
2023-04-27T03:30:39.605Z,70.25
2023-04-27T03:31:39.645Z,72.30
2023-04-27T03:32:39.684Z,70.23
2023-04-27T03:33:39.659Z,70.33
2023-04-27T03:34:39.663Z,69.03
2023-04-27T03:35:39.685Z,69.23
2023-04-27T03:36:39.662Z,68.51
2023-04-27T03:37:39.716Z,68.55
2023-04-27T03:38:39.695Z,67.88
2023-04-27T03:39:39.726Z,66.45
2023-04-27T03:40:39.704Z,64.62
2023-04-27T03:41:39.725Z,66.03
2023-04-27T03:42:39.726Z,65.30
2023-04-27T03:43:39.741Z,65.51
2023-04-27T03:44:39.832Z,64.22
2023-04-27T03:45:39.771Z,65.80
2023-04-27T03:46:39.737Z,70.19
2023-04-27T03:47:39.874Z,71.29
2023-04-27T03:48:39.782Z,70.45
2023-04-27T03:49:39.826Z,69.03
2023-04-27T03:50:39.794Z,65.53
2023-04-27T03:51:39.809Z,63.88
2023-04-27T03:52:39.833Z,64.69
2023-04-27T03:53:39.858Z,64.12
2023-04-27T03:54:39.871Z,67.14
2023-04-27T03:55:39.871Z,67.39
2023-04-27T03:56:39.886Z,70.59
2023-04-27T03:57:39.882Z,70.37
2023-04-27T03:58:39.927Z,71.80
2023-04-27T03:59:39.911Z,71.02
2023-04-27T04:00:40.012Z,69.78
2023-04-27T04:01:40.014Z,68.98
2023-04-27T04:02:40.073Z,69.06
2023-04-27T04:03:40.082Z,66.94
2023-04-27T04:04:40.214Z,65.93
2023-04-27T04:05:39.986Z,65.51
2023-04-27T04:06:40.006Z,64.11
2023-04-27T04:07:40.003Z,64.38
2023-04-27T04:08:39.988Z,63.23
2023-04-27T04:09:40.024Z,66.18
2023-04-27T04:10:40.012Z,65.81
2023-04-27T04:11:40.042Z,64.55
2023-04-27T04:12:40.017Z,65.10
2023-04-27T04:13:39.994Z,63.64
2023-04-27T04:14:40.066Z,64.07
2023-04-27T04:15:40.123Z,63.15
2023-04-27T04:16:40.068Z,63.26
2023-04-27T04:17:40.053Z,64.20
2023-04-27T04:18:40.017Z,64.76
2023-04-27T04:19:40.036Z,62.33
2023-04-27T04:20:40.048Z,63.66
2023-04-27T04:21:40.013Z,64.74
2023-04-27T04:22:40.023Z,65.99
2023-04-27T04:23:40.062Z,65.80
2023-04-27T04:24:40.083Z,67.36
2023-04-27T04:25:40.038Z,66.93
2023-04-27T04:26:40.035Z,67.52
2023-04-27T04:27:40.080Z,67.84
2023-04-27T04:28:40.047Z,69.37
2023-04-27T04:29:40.018Z,70.62
2023-04-27T04:30:40.035Z,69.11
2023-04-27T04:31:40.073Z,69.50
2023-04-27T04:32:40.082Z,71.96
2023-04-27T04:33:40.067Z,72.12
2023-04-27T04:34:40.034Z,72.39
2023-04-27T04:35:40.093Z,73.03
2023-04-27T04:36:40.032Z,75.98
2023-04-27T04:37:40.058Z,78.15
2023-04-27T04:38:40.042Z,79.31
2023-04-27T04:39:40.003Z,79.47
2023-04-27T04:40:40.058Z,78.30
2023-04-27T04:41:40.045Z,78.49
2023-04-27T04:42:40.012Z,78.20
2023-04-27T04:43:40.021Z,79.89
2023-04-27T04:44:40.000Z,82.58
2023-04-27T04:45:40.021Z,81.26
2023-04-27T04:46:40.086Z,82.82
2023-04-27T04:47:40.127Z,82.88
2023-04-27T04:48:40.025Z,82.36
2023-04-27T04:49:40.010Z,84.34
2023-04-27T04:50:40.019Z,85.03
2023-04-27T04:51:39.991Z,86.67
2023-04-27T04:52:40.010Z,85.90
2023-04-27T04:53:40.018Z,86.49
2023-04-27T04:54:40.016Z,85.82
2023-04-27T04:55:39.990Z,88.77
2023-04-27T04:56:39.984Z,86.95
2023-04-27T04:57:40.019Z,89.28
2023-04-27T04:58:40.028Z,89.48
2023-04-27T04:59:40.010Z,88.74
2023-04-27T05:00:46.995Z,89.89
2023-04-27T05:01:47.049Z,90.11
2023-04-27T05:02:40.120Z,90.31
2023-04-27T05:03:40.186Z,91.54
2023-04-27T05:04:40.072Z,92.58
2023-04-27T05:05:39.955Z,93.38
2023-04-27T05:06:39.957Z,94.09
2023-04-27T05:07:39.936Z,92.38
2023-04-27T05:08:39.919Z,93.78
2023-04-27T05:09:39.969Z,92.76
2023-04-27T05:10:39.926Z,91.50
2023-04-27T05:11:39.925Z,91.58
2023-04-27T05:12:39.927Z,90.58
2023-04-27T05:13:39.898Z,88.14
2023-04-27T05:14:39.902Z,89.69
2023-04-27T05:15:39.896Z,90.51
2023-04-27T05:16:40.002Z,92.69
2023-04-27T05:17:39.912Z,92.60
2023-04-27T05:18:39.879Z,92.72
2023-04-27T05:19:39.870Z,93.70
2023-04-27T05:20:39.856Z,93.94
2023-04-27T05:21:39.846Z,92.48
2023-04-27T05:22:39.838Z,94.31
2023-04-27T05:23:39.821Z,97.00
2023-04-27T05:24:39.876Z,96.32
2023-04-27T05:25:39.832Z,96.34
2023-04-27T05:26:39.818Z,96.38
2023-04-27T05:27:39.794Z,96.29
2023-04-27T05:28:39.803Z,97.23
2023-04-27T05:29:39.802Z,98.85
2023-04-27T05:30:39.805Z,99.91
2023-04-27T05:31:39.826Z,101.19
2023-04-27T05:32:40.270Z,101.58
2023-04-27T05:33:39.820Z,102.61
2023-04-27T05:34:39.802Z,99.99
2023-04-27T05:35:39.748Z,97.52
2023-04-27T05:36:39.759Z,96.75
2023-04-27T05:37:39.754Z,94.66
2023-04-27T05:38:39.740Z,95.39
2023-04-27T05:39:39.732Z,98.54
2023-04-27T05:40:39.710Z,108.17
2023-04-27T05:41:39.700Z,114.29
2023-04-27T05:42:39.741Z,122.15
2023-04-27T05:43:39.751Z,136.97
2023-04-27T05:44:39.724Z,145.66
2023-04-27T05:45:39.732Z,158.21
2023-04-27T05:46:46.698Z,175.30
2023-04-27T05:47:39.875Z,176.43
2023-04-27T05:48:39.667Z,183.24
2023-04-27T05:49:39.663Z,194.40
2023-04-27T05:50:39.654Z,239.88
2023-04-27T05:51:39.628Z,347.04
2023-04-27T05:52:39.640Z,356.60
2023-04-27T05:53:39.631Z,378.62
2023-04-27T05:54:39.657Z,485.08
2023-04-27T05:55:39.630Z,424.06
2023-04-27T05:56:39.660Z,411.06
2023-04-27T05:57:40.360Z,405.64
2023-04-27T05:58:39.607Z,398.80
2023-04-27T05:59:39.590Z,421.80
2023-04-27T06:00:39.597Z,406.02
2023-04-27T06:01:39.571Z,427.66
2023-04-27T06:02:39.680Z,450.23
2023-04-27T06:03:39.778Z,485.19
2023-04-27T06:04:39.630Z,418.70
2023-04-27T06:05:39.600Z,401.88
2023-04-27T06:06:39.528Z,391.03
2023-04-27T06:07:39.559Z,429.46
2023-04-27T06:08:39.585Z,456.98
2023-04-27T06:09:39.529Z,658.83
2023-04-27T06:10:39.497Z,574.25
2023-04-27T06:11:39.498Z,595.41
2023-04-27T06:12:39.492Z,645.13
2023-04-27T06:13:39.752Z,639.56
2023-04-27T06:14:39.497Z,739.71
2023-04-27T06:15:39.577Z,826.33
2023-04-27T06:16:39.471Z,978.77
2023-04-27T06:17:39.511Z,1000.00
2023-04-27T06:18:39.440Z,1000.00
2023-04-27T06:19:39.464Z,1000.00
2023-04-27T06:20:39.442Z,1000.00
2023-04-27T06:21:39.433Z,1000.00
2023-04-27T06:22:39.463Z,1000.00
2023-04-27T06:23:39.418Z,1000.00
2023-04-27T06:24:39.490Z,1000.00
2023-04-27T06:25:39.433Z,1000.00
2023-04-27T06:26:39.399Z,1000.00
2023-04-27T06:27:39.407Z,1000.00
2023-04-27T06:28:39.379Z,1000.00
2023-04-27T06:29:39.387Z,1000.00
2023-04-27T06:30:39.755Z,1000.00
2023-04-27T06:31:39.459Z,1000.00
2023-04-27T06:32:39.404Z,1000.00
2023-04-27T06:33:39.802Z,1000.00
2023-04-27T06:34:39.418Z,1000.00
2023-04-27T06:35:39.473Z,950.13
2023-04-27T06:36:39.525Z,867.82
2023-04-27T06:37:39.536Z,833.94
2023-04-27T06:38:39.792Z,778.17
2023-04-27T06:39:39.663Z,683.44
2023-04-27T06:40:39.756Z,745.60
2023-04-27T06:41:39.786Z,610.71
2023-04-27T06:42:39.929Z,627.63
2023-04-27T06:43:40.350Z,950.73
2023-04-27T06:44:39.869Z,1000.00
2023-04-27T06:45:39.882Z,1000.00
2023-04-27T06:46:39.936Z,1000.00
2023-04-27T06:47:39.910Z,986.07
2023-04-27T06:48:39.885Z,850.50
2023-04-27T06:49:39.895Z,1000.00
2023-04-27T06:50:39.910Z,897.84
2023-04-27T06:51:39.960Z,741.50
2023-04-27T06:52:39.947Z,923.24
2023-04-27T06:53:40.058Z,1000.00
2023-04-27T06:54:40.008Z,1000.00
2023-04-27T06:55:43.028Z,1000.00
2023-04-27T06:56:40.076Z,1000.00
2023-04-27T06:57:40.021Z,1000.00
2023-04-27T06:58:40.023Z,1000.00
2023-04-27T06:59:40.000Z,1000.00
2023-04-27T07:00:39.989Z,1000.00
2023-04-27T07:01:40.087Z,1000.00
2023-04-27T07:02:40.118Z,1000.00
2023-04-27T07:03:40.292Z,1000.00
2023-04-27T07:04:39.992Z,1000.00
2023-04-27T07:05:39.981Z,1000.00
2023-04-27T07:06:39.951Z,1000.00
2023-04-27T07:07:39.914Z,937.46
2023-04-27T07:08:39.936Z,977.27
2023-04-27T07:09:39.933Z,939.63
2023-04-27T07:10:39.902Z,835.85
2023-04-27T07:11:39.908Z,773.87
2023-04-27T07:12:39.887Z,758.86
2023-04-27T07:13:39.905Z,737.80
2023-04-27T07:14:39.909Z,716.61
2023-04-27T07:15:39.980Z,707.58
2023-04-27T07:16:40.011Z,686.33
2023-04-27T07:17:39.910Z,672.45
2023-04-27T07:18:40.997Z,635.47
2023-04-27T07:19:40.716Z,636.08
2023-04-27T07:20:39.855Z,635.21
2023-04-27T07:21:39.867Z,637.41
2023-04-27T07:22:39.818Z,626.69
2023-04-27T07:23:39.821Z,619.23
2023-04-27T07:24:39.824Z,604.36
2023-04-27T07:25:39.838Z,582.12
2023-04-27T07:26:39.857Z,564.66
2023-04-27T07:27:39.804Z,529.42
2023-04-27T07:28:39.825Z,489.20
2023-04-27T07:29:39.791Z,461.54
2023-04-27T07:30:39.819Z,443.74
2023-04-27T07:31:39.823Z,433.30
2023-04-27T07:32:39.843Z,422.97
2023-04-27T07:33:39.800Z,392.11
2023-04-27T07:34:51.728Z,282.47
2023-04-27T07:35:40.717Z,162.89
2023-04-27T07:36:39.735Z,98.43
2023-04-27T07:37:39.718Z,82.68
2023-04-27T07:38:39.698Z,60.62
2023-04-27T07:39:39.814Z,49.07
2023-04-27T07:40:39.700Z,39.02
2023-04-27T07:41:39.690Z,34.74
2023-04-27T07:42:39.694Z,32.76
2023-04-27T07:43:39.672Z,34.94
2023-04-27T07:44:39.675Z,48.06
2023-04-27T07:45:39.690Z,68.58
2023-04-27T07:46:39.704Z,91.24
2023-04-27T07:47:39.779Z,134.46
2023-04-27T07:48:39.840Z,145.74
2023-04-27T07:49:39.848Z,175.78
2023-04-27T07:50:39.901Z,210.56
2023-04-27T07:51:39.941Z,255.84
2023-04-27T07:52:39.958Z,272.70
2023-04-27T07:53:39.997Z,275.67
2023-04-27T07:54:39.983Z,268.35
2023-04-27T07:55:40.037Z,246.52
2023-04-27T07:56:40.015Z,231.49
2023-04-27T07:57:40.056Z,217.12
2023-04-27T07:58:40.073Z,223.87
2023-04-27T07:59:40.096Z,228.23
2023-04-27T08:00:40.123Z,243.65
2023-04-27T08:01:40.080Z,245.76
2023-04-27T08:02:40.278Z,250.70
2023-04-27T08:03:40.299Z,257.08
2023-04-27T08:04:40.442Z,257.72
2023-04-27T08:05:40.326Z,254.94
2023-04-27T08:06:40.444Z,249.89
2023-04-27T08:07:44.633Z,242.68
2023-04-27T08:08:41.043Z,242.93
2023-04-27T08:09:40.903Z,236.95
2023-04-27T08:10:40.050Z,236.82
2023-04-27T08:11:40.082Z,234.88
2023-04-27T08:12:40.096Z,227.84
2023-04-27T08:13:40.030Z,220.37
2023-04-27T08:14:40.010Z,217.22
2023-04-27T08:15:40.015Z,188.98
2023-04-27T08:16:40.027Z,189.08
2023-04-27T08:17:40.004Z,187.94
2023-04-27T08:18:39.993Z,189.87
2023-04-27T08:19:40.015Z,189.44
2023-04-27T08:20:39.983Z,190.08
2023-04-27T08:21:39.944Z,182.42
2023-04-27T08:22:39.968Z,177.90
2023-04-27T08:23:39.997Z,160.24
2023-04-27T08:24:39.933Z,133.08
2023-04-27T08:25:39.943Z,80.34
2023-04-27T08:26:39.937Z,26.72
2023-04-27T08:27:39.919Z,15.88
2023-04-27T08:28:39.915Z,10.25
2023-04-27T08:29:39.880Z,5.87
2023-04-27T08:30:39.910Z,4.82
2023-04-27T08:31:39.991Z,6.74
2023-04-27T08:32:40.046Z,11.71
2023-04-27T08:33:39.927Z,22.22
2023-04-27T08:34:40.306Z,35.08
2023-04-27T08:35:40.029Z,42.46
2023-04-27T08:36:40.031Z,50.66
2023-04-27T08:37:40.041Z,41.31
2023-04-27T08:38:40.040Z,32.61
2023-04-27T08:39:40.285Z,26.52
2023-04-27T08:40:40.086Z,31.33
2023-04-27T08:41:40.091Z,30.10
2023-04-27T08:42:40.124Z,25.45
2023-04-27T08:43:40.160Z,16.35
2023-04-27T08:44:40.170Z,11.85
2023-04-27T08:45:40.180Z,8.44
2023-04-27T08:46:40.223Z,6.42
2023-04-27T08:47:43.921Z,5.37
2023-04-27T08:48:40.246Z,8.60
2023-04-27T08:49:40.249Z,15.87
2023-04-27T08:50:40.217Z,16.52
2023-04-27T08:51:40.193Z,16.42
2023-04-27T08:52:40.229Z,15.09
2023-04-27T08:53:40.197Z,12.96
2023-04-27T08:54:40.182Z,11.14
2023-04-27T08:55:40.196Z,9.82
2023-04-27T08:56:40.225Z,11.30
2023-04-27T08:57:40.160Z,8.78
2023-04-27T08:58:40.131Z,6.80
2023-04-27T08:59:40.176Z,5.62
2023-04-27T09:00:40.141Z,4.37
2023-04-27T09:01:40.204Z,4.10
2023-04-27T09:02:40.289Z,3.77
2023-04-27T09:03:40.226Z,3.40
2023-04-27T09:04:40.294Z,3.93
2023-04-27T09:05:46.590Z,4.93
2023-04-27T09:06:41.124Z,3.86
2023-04-27T09:07:40.099Z,3.27
2023-04-27T09:08:40.134Z,3.02
2023-04-27T09:09:40.064Z,2.75
2023-04-27T09:10:40.310Z,2.56
2023-04-27T09:11:40.098Z,2.59
2023-04-27T09:12:40.083Z,2.58
2023-04-27T09:13:40.081Z,2.70
2023-04-27T09:14:40.064Z,3.14
2023-04-27T09:15:40.090Z,3.10
2023-04-27T09:16:40.120Z,2.66
2023-04-27T09:17:40.053Z,2.34
2023-04-27T09:18:39.993Z,2.56
2023-04-27T09:19:40.056Z,2.49
2023-04-27T09:20:40.115Z,2.58
2023-04-27T09:21:40.159Z,2.97
2023-04-27T09:22:40.201Z,2.77
2023-04-27T09:23:40.227Z,4.43
2023-04-27T09:24:40.305Z,6.16
2023-04-27T09:25:40.842Z,9.06
2023-04-27T09:26:40.363Z,13.51
2023-04-27T09:27:40.411Z,17.97
2023-04-27T09:28:40.413Z,23.06
2023-04-27T09:29:40.440Z,30.67
2023-04-27T09:30:40.484Z,34.36
2023-04-27T09:31:40.542Z,39.65
2023-04-27T09:32:40.518Z,34.41
2023-04-27T09:33:40.502Z,26.25
2023-04-27T09:34:40.511Z,14.96
2023-04-27T09:35:40.830Z,13.49
2023-04-27T09:36:40.539Z,10.72
2023-04-27T09:37:40.547Z,10.49
2023-04-27T09:38:40.533Z,26.89
2023-04-27T09:39:40.553Z,21.20
2023-04-27T09:40:40.552Z,28.04
2023-04-27T09:41:40.609Z,29.17
2023-04-27T09:42:40.614Z,27.13
2023-04-27T09:43:40.581Z,30.43
2023-04-27T09:44:40.957Z,38.04
2023-04-27T09:45:40.636Z,51.04
2023-04-27T09:46:40.604Z,75.25
2023-04-27T09:47:40.648Z,89.45
2023-04-27T09:48:40.624Z,100.54
2023-04-27T09:49:40.639Z,96.02
2023-04-27T09:50:40.831Z,62.75
2023-04-27T09:51:40.603Z,36.35
2023-04-27T09:52:40.600Z,22.97
2023-04-27T09:53:40.603Z,19.38
2023-04-27T09:54:40.613Z,15.10
2023-04-27T09:55:40.608Z,10.70
2023-04-27T09:56:40.587Z,9.43
2023-04-27T09:57:40.615Z,9.93
2023-04-27T09:58:40.590Z,12.77
2023-04-27T09:59:40.601Z,12.86
2023-04-27T10:00:40.839Z,9.28
2023-04-27T10:01:40.629Z,8.17
2023-04-27T10:02:52.171Z,9.54
2023-04-27T10:03:41.617Z,8.74
2023-04-27T10:04:40.772Z,6.70
2023-04-27T10:05:41.545Z,7.73
2023-04-27T10:06:40.556Z,8.23
2023-04-27T10:07:40.532Z,9.25
2023-04-27T10:08:40.553Z,8.21
2023-04-27T10:09:40.546Z,6.64
2023-04-27T10:10:40.527Z,6.69
2023-04-27T10:11:40.528Z,6.48
2023-04-27T10:12:40.493Z,8.49
2023-04-27T10:13:40.514Z,7.37
2023-04-27T10:14:40.483Z,7.02
2023-04-27T10:15:40.495Z,7.78
2023-04-27T10:16:40.548Z,7.69
2023-04-27T10:17:40.487Z,7.41
2023-04-27T10:18:40.464Z,5.73
2023-04-27T10:19:40.517Z,6.20
2023-04-27T10:20:40.457Z,6.45
2023-04-27T10:21:40.433Z,4.98
2023-04-27T10:22:40.426Z,5.11
2023-04-27T10:23:40.445Z,5.03
2023-04-27T10:24:40.410Z,6.22
2023-04-27T10:25:40.535Z,5.90
2023-04-27T10:26:40.380Z,7.28
2023-04-27T10:27:40.394Z,12.53
2023-04-27T10:28:40.379Z,17.86
2023-04-27T10:29:40.399Z,23.69
2023-04-27T10:30:40.445Z,30.46
2023-04-27T10:31:40.375Z,34.03
2023-04-27T10:32:40.359Z,40.11
2023-04-27T10:33:40.338Z,48.75
2023-04-27T10:34:40.349Z,45.60
2023-04-27T10:35:40.885Z,41.12
2023-04-27T10:36:40.459Z,40.41
2023-04-27T10:37:40.544Z,34.60
2023-04-27T10:38:40.583Z,31.20
2023-04-27T10:39:48.010Z,21.98
2023-04-27T10:40:41.891Z,22.12
2023-04-27T10:41:40.624Z,22.36
2023-04-27T10:42:40.650Z,22.22
2023-04-27T10:43:40.578Z,18.00
2023-04-27T10:44:40.608Z,17.71
2023-04-27T10:45:40.558Z,17.45
2023-04-27T10:46:40.889Z,14.81
2023-04-27T10:47:40.572Z,11.37
2023-04-27T10:48:40.606Z,8.08
2023-04-27T10:49:40.555Z,6.28
2023-04-27T10:50:40.560Z,4.76
2023-04-27T10:51:40.548Z,4.53
2023-04-27T10:52:40.539Z,2.62
2023-04-27T10:53:40.566Z,2.53
2023-04-27T10:54:40.516Z,1.82
2023-04-27T10:55:40.581Z,1.70
2023-04-27T10:56:40.886Z,1.88
2023-04-27T10:57:40.624Z,2.46
2023-04-27T10:58:48.690Z,3.37
2023-04-27T10:59:41.667Z,3.38
2023-04-27T11:00:40.627Z,2.68
2023-04-27T11:01:40.643Z,0.93
2023-04-27T11:02:40.727Z,1.26
2023-04-27T11:03:40.762Z,2.09
2023-04-27T11:04:40.643Z,3.78
2023-04-27T11:05:40.631Z,4.97
2023-04-27T11:06:40.597Z,3.96
2023-04-27T11:07:40.617Z,4.00
2023-04-27T11:08:40.602Z,2.90
2023-04-27T11:09:40.597Z,3.68
2023-04-27T11:10:40.577Z,5.43
2023-04-27T11:11:40.579Z,3.75
2023-04-27T11:12:40.625Z,1.83
2023-04-27T11:13:40.762Z,1.61
2023-04-27T11:14:40.733Z,1.20
2023-04-27T11:15:40.807Z,0.99
2023-04-27T11:16:40.814Z,1.02
2023-04-27T11:17:40.886Z,0.84
2023-04-27T11:18:40.916Z,0.81
2023-04-27T11:19:40.898Z,0.83
2023-04-27T11:20:40.981Z,1.24
2023-04-27T11:21:41.406Z,0.82
2023-04-27T11:22:41.069Z,0.75
2023-04-27T11:23:41.105Z,1.16
2023-04-27T11:24:41.115Z,0.98
2023-04-27T11:25:41.178Z,0.96
2023-04-27T11:26:41.246Z,1.03
2023-04-27T11:27:41.256Z,1.29
2023-04-27T11:28:41.298Z,1.63
2023-04-27T11:29:41.874Z,1.91
2023-04-27T11:30:41.414Z,2.24
2023-04-27T11:31:41.957Z,2.51
2023-04-27T11:32:41.528Z,2.64
2023-04-27T11:33:41.517Z,3.40
2023-04-27T11:34:41.541Z,3.77
2023-04-27T11:35:41.586Z,4.47
2023-04-27T11:36:41.880Z,5.31
2023-04-27T11:37:41.668Z,5.74
2023-04-27T11:38:41.679Z,6.61
2023-04-27T11:39:41.720Z,7.28
2023-04-27T11:40:41.652Z,7.05
2023-04-27T11:41:41.914Z,7.35
2023-04-27T11:42:41.716Z,7.60
2023-04-27T11:43:41.731Z,7.85
2023-04-27T11:44:41.722Z,7.18
2023-04-27T11:45:41.726Z,7.18
2023-04-27T11:46:41.769Z,7.47
2023-04-27T11:47:41.768Z,7.97
2023-04-27T11:48:41.771Z,8.78
2023-04-27T11:49:41.779Z,9.00
2023-04-27T11:50:41.780Z,9.47
2023-04-27T11:51:41.904Z,10.27
2023-04-27T11:52:41.769Z,10.25
2023-04-27T11:53:41.776Z,11.85
2023-04-27T11:54:41.782Z,12.12
2023-04-27T11:55:41.795Z,12.85
2023-04-27T11:56:41.748Z,13.04
2023-04-27T11:57:41.762Z,14.26
2023-04-27T11:58:42.345Z,15.11
2023-04-27T11:59:41.761Z,15.83
2023-04-27T12:00:41.775Z,16.56
2023-04-27T12:01:41.780Z,16.03
2023-04-27T12:02:42.086Z,14.71
2023-04-27T12:04:41.896Z,14.46
2023-04-27T12:05:41.832Z,15.47
2023-04-27T12:06:41.754Z,15.26
2023-04-27T12:07:41.743Z,15.31
2023-04-27T12:08:41.725Z,15.74
2023-04-27T12:09:41.705Z,15.68
2023-04-27T12:10:41.715Z,15.37
2023-04-27T12:11:41.719Z,14.60
2023-04-27T12:12:41.746Z,13.93
2023-04-27T12:13:41.805Z,12.75
2023-04-27T12:14:41.739Z,13.84
2023-04-27T12:15:41.760Z,15.06
2023-04-27T12:16:41.758Z,15.60
2023-04-27T12:17:41.811Z,15.34
2023-04-27T12:18:41.755Z,14.28
2023-04-27T12:19:41.756Z,14.38
2023-04-27T12:20:41.746Z,14.88
2023-04-27T12:21:41.758Z,15.70
2023-04-27T12:22:41.743Z,16.57
2023-04-27T12:23:41.748Z,15.13
2023-04-27T12:24:41.757Z,16.37
2023-04-27T12:25:41.749Z,15.66
2023-04-27T12:26:41.749Z,14.56
2023-04-27T12:27:41.729Z,13.89
2023-04-27T12:28:41.754Z,14.25
2023-04-27T12:29:41.746Z,14.40
2023-04-27T12:30:41.882Z,11.68
2023-04-27T12:31:41.828Z,8.99
2023-04-27T12:32:41.747Z,9.67
2023-04-27T12:33:41.702Z,9.70
2023-04-27T12:34:41.703Z,9.05
2023-04-27T12:35:41.694Z,10.18
2023-04-27T12:36:41.721Z,11.45
2023-04-27T12:37:41.687Z,12.07
2023-04-27T12:38:41.702Z,12.70
2023-04-27T12:39:41.691Z,13.88
2023-04-27T12:40:41.679Z,14.01
2023-04-27T12:41:41.701Z,14.26
2023-04-27T12:42:41.707Z,14.58
2023-04-27T12:43:41.721Z,14.53
2023-04-27T12:44:41.732Z,14.81
2023-04-27T12:45:41.739Z,14.58
2023-04-27T12:46:41.790Z,13.35
2023-04-27T12:48:41.845Z,13.64
2023-04-27T12:49:41.778Z,13.77
2023-04-27T12:50:41.810Z,13.96
2023-04-27T12:51:41.892Z,12.59
2023-04-27T12:52:41.784Z,13.79